sensor_id;sensor_type;location;lat;lon;timestamp;pressure;altitude;pressure_sealevel;temperature;humidity
6144;BME280;3103;49.492;8.474;2023-02-28T00:00:36;101515.59;;;2.56;47.97
6144;BME280;3103;49.492;8.474;2023-02-28T00:03:03;101510.44;;;2.54;48.03
6144;BME280;3103;49.492;8.474;2023-02-28T00:05:30;101505.91;;;2.47;48.36
6144;BME280;3103;49.492;8.474;2023-02-28T00:07:57;101502.75;;;2.43;48.83
6144;BME280;3103;49.492;8.474;2023-02-28T00:10:26;101511.03;;;2.40;48.59
6144;BME280;3103;49.492;8.474;2023-02-28T00:12:55;101517.84;;;2.43;49.49
6144;BME280;3103;49.492;8.474;2023-02-28T00:15:25;101509.56;;;2.46;49.08
6144;BME280;3103;49.492;8.474;2023-02-28T00:17:53;101512.81;;;2.31;49.32
6144;BME280;3103;49.492;8.474;2023-02-28T00:20:20;101505.22;;;2.36;49.46
6144;BME280;3103;49.492;8.474;2023-02-28T00:22:49;101497.69;;;2.24;49.74
6144;BME280;3103;49.492;8.474;2023-02-28T00:25:19;101502.00;;;2.25;50.15
6144;BME280;3103;49.492;8.474;2023-02-28T00:27:46;101510.00;;;2.33;49.90
6144;BME280;3103;49.492;8.474;2023-02-28T00:30:23;101510.44;;;2.20;49.92
6144;BME280;3103;49.492;8.474;2023-02-28T00:32:50;101500.66;;;2.21;50.33
6144;BME280;3103;49.492;8.474;2023-02-28T00:35:17;101512.09;;;2.21;50.40
6144;BME280;3103;49.492;8.474;2023-02-28T00:37:44;101501.47;;;2.13;51.03
6144;BME280;3103;49.492;8.474;2023-02-28T00:40:11;101497.78;;;2.06;51.42
6144;BME280;3103;49.492;8.474;2023-02-28T00:42:39;101503.38;;;2.29;50.05
6144;BME280;3103;49.492;8.474;2023-02-28T00:45:07;101505.50;;;2.25;50.57
6144;BME280;3103;49.492;8.474;2023-02-28T00:47:37;101504.19;;;2.29;50.34
6144;BME280;3103;49.492;8.474;2023-02-28T00:50:05;101505.38;;;2.35;51.22
6144;BME280;3103;49.492;8.474;2023-02-28T00:52:32;101506.63;;;2.15;51.12
6144;BME280;3103;49.492;8.474;2023-02-28T00:54:58;101507.59;;;2.14;51.33
6144;BME280;3103;49.492;8.474;2023-02-28T00:57:26;101515.25;;;2.25;51.38
6144;BME280;3103;49.492;8.474;2023-02-28T00:59:52;101509.00;;;2.26;51.24
6144;BME280;3103;49.492;8.474;2023-02-28T01:02:22;101506.47;;;2.16;51.71
6144;BME280;3103;49.492;8.474;2023-02-28T01:04:49;101513.59;;;2.16;51.92
6144;BME280;3103;49.492;8.474;2023-02-28T01:07:15;101503.81;;;2.16;51.70
6144;BME280;3103;49.492;8.474;2023-02-28T01:09:42;101508.28;;;2.16;51.97
6144;BME280;3103;49.492;8.474;2023-02-28T01:12:09;101505.41;;;2.09;52.17
6144;BME280;3103;49.492;8.474;2023-02-28T01:14:36;101501.78;;;2.10;52.40
6144;BME280;3103;49.492;8.474;2023-02-28T01:17:04;101508.44;;;2.14;52.59
6144;BME280;3103;49.492;8.474;2023-02-28T01:19:31;101502.06;;;1.99;52.49
6144;BME280;3103;49.492;8.474;2023-02-28T01:22:00;101501.47;;;2.13;52.58
6144;BME280;3103;49.492;8.474;2023-02-28T01:24:28;101503.91;;;2.06;52.76
6144;BME280;3103;49.492;8.474;2023-02-28T01:26:54;101501.06;;;2.00;53.10
6144;BME280;3103;49.492;8.474;2023-02-28T01:29:21;101504.41;;;2.02;52.47
6144;BME280;3103;49.492;8.474;2023-02-28T01:31:48;101496.06;;;1.97;53.04
6144;BME280;3103;49.492;8.474;2023-02-28T01:34:14;101500.75;;;2.03;52.66
6144;BME280;3103;49.492;8.474;2023-02-28T01:36:41;101495.78;;;2.00;52.97
6144;BME280;3103;49.492;8.474;2023-02-28T01:39:08;101498.38;;;1.92;53.58
6144;BME280;3103;49.492;8.474;2023-02-28T01:41:34;101504.00;;;1.89;53.74
6144;BME280;3103;49.492;8.474;2023-02-28T01:44:05;101498.19;;;1.85;53.90
6144;BME280;3103;49.492;8.474;2023-02-28T01:46:34;101495.56;;;1.93;52.73
6144;BME280;3103;49.492;8.474;2023-02-28T01:49:09;101494.41;;;1.96;53.41
6144;BME280;3103;49.492;8.474;2023-02-28T01:51:43;101486.44;;;1.96;53.43
6144;BME280;3103;49.492;8.474;2023-02-28T01:54:25;101499.03;;;1.94;53.68
6144;BME280;3103;49.492;8.474;2023-02-28T01:57:04;101496.22;;;1.95;53.57
6144;BME280;3103;49.492;8.474;2023-02-28T01:59:40;101484.78;;;1.95;54.06
6144;BME280;3103;49.492;8.474;2023-02-28T02:02:19;101488.03;;;1.81;53.86
6144;BME280;3103;49.492;8.474;2023-02-28T02:05:27;101491.16;;;1.76;54.32
6144;BME280;3103;49.492;8.474;2023-02-28T02:07:47;101488.56;;;1.84;54.20
6144;BME280;3103;49.492;8.474;2023-02-28T02:10:18;101480.72;;;1.74;54.60
6144;BME280;3103;49.492;8.474;2023-02-28T02:18:54;101482.53;;;1.74;55.10
6144;BME280;3103;49.492;8.474;2023-02-28T02:21:59;101469.69;;;1.61;54.72
6144;BME280;3103;49.492;8.474;2023-02-28T02:24:59;101476.25;;;1.75;54.91
6144;BME280;3103;49.492;8.474;2023-02-28T02:27:49;101477.41;;;1.72;55.27
6144;BME280;3103;49.492;8.474;2023-02-28T02:30:36;101467.94;;;1.70;55.35
6144;BME280;3103;49.492;8.474;2023-02-28T02:35:54;101467.72;;;1.63;55.39
6144;BME280;3103;49.492;8.474;2023-02-28T02:41:08;101479.06;;;1.73;55.57
6144;BME280;3103;49.492;8.474;2023-02-28T02:43:45;101466.72;;;1.64;55.32
6144;BME280;3103;49.492;8.474;2023-02-28T02:46:21;101473.09;;;1.71;55.72
6144;BME280;3103;49.492;8.474;2023-02-28T02:48:50;101472.44;;;1.52;55.92
6144;BME280;3103;49.492;8.474;2023-02-28T02:51:21;101473.50;;;1.59;56.30
6144;BME280;3103;49.492;8.474;2023-02-28T02:53:53;101472.13;;;1.55;55.75
6144;BME280;3103;49.492;8.474;2023-02-28T02:56:24;101476.75;;;1.53;55.81
6144;BME280;3103;49.492;8.474;2023-02-28T02:58:56;101464.06;;;1.56;55.83
6144;BME280;3103;49.492;8.474;2023-02-28T03:01:26;101474.66;;;1.56;55.97
6144;BME280;3103;49.492;8.474;2023-02-28T03:03:59;101463.09;;;1.39;55.99
6144;BME280;3103;49.492;8.474;2023-02-28T03:06:27;101461.34;;;1.48;56.18
6144;BME280;3103;49.492;8.474;2023-02-28T03:08:54;101466.47;;;1.49;56.01
6144;BME280;3103;49.492;8.474;2023-02-28T03:11:22;101464.66;;;1.50;56.85
6144;BME280;3103;49.492;8.474;2023-02-28T03:13:58;101462.38;;;1.55;56.33
6144;BME280;3103;49.492;8.474;2023-02-28T03:19:47;101458.63;;;1.40;56.52
6144;BME280;3103;49.492;8.474;2023-02-28T03:25:17;101451.16;;;1.35;57.34
6144;BME280;3103;49.492;8.474;2023-02-28T03:27:55;101453.31;;;1.40;56.97
6144;BME280;3103;49.492;8.474;2023-02-28T03:30:32;101455.00;;;1.41;56.85
6144;BME280;3103;49.492;8.474;2023-02-28T03:33:08;101462.06;;;1.32;57.00
6144;BME280;3103;49.492;8.474;2023-02-28T03:35:39;101454.88;;;1.25;57.52
6144;BME280;3103;49.492;8.474;2023-02-28T03:38:28;101449.28;;;1.28;57.49
6144;BME280;3103;49.492;8.474;2023-02-28T03:41:07;101454.09;;;1.32;57.36
6144;BME280;3103;49.492;8.474;2023-02-28T03:43:40;101453.75;;;1.27;57.40
6144;BME280;3103;49.492;8.474;2023-02-28T03:46:12;101450.78;;;1.30;57.65
6144;BME280;3103;49.492;8.474;2023-02-28T03:48:45;101455.41;;;1.28;57.24
6144;BME280;3103;49.492;8.474;2023-02-28T03:51:16;101455.63;;;1.35;57.56
6144;BME280;3103;49.492;8.474;2023-02-28T03:53:50;101459.31;;;1.24;57.44
6144;BME280;3103;49.492;8.474;2023-02-28T03:56:56;101458.56;;;1.32;58.46
6144;BME280;3103;49.492;8.474;2023-02-28T03:59:26;101457.91;;;1.30;57.37
6144;BME280;3103;49.492;8.474;2023-02-28T04:01:55;101459.81;;;1.19;58.06
6144;BME280;3103;49.492;8.474;2023-02-28T04:04:24;101456.00;;;1.22;57.98
6144;BME280;3103;49.492;8.474;2023-02-28T04:06:52;101458.81;;;1.21;58.17
6144;BME280;3103;49.492;8.474;2023-02-28T04:09:19;101460.56;;;1.12;58.08
6144;BME280;3103;49.492;8.474;2023-02-28T04:11:51;101455.25;;;1.12;58.21
6144;BME280;3103;49.492;8.474;2023-02-28T04:14:18;101454.66;;;1.18;58.09
6144;BME280;3103;49.492;8.474;2023-02-28T04:16:45;101446.13;;;1.06;58.18
6144;BME280;3103;49.492;8.474;2023-02-28T04:19:13;101452.59;;;1.12;58.38
6144;BME280;3103;49.492;8.474;2023-02-28T04:21:48;101458.38;;;1.07;58.40
6144;BME280;3103;49.492;8.474;2023-02-28T04:24:20;101451.78;;;1.11;58.42
6144;BME280;3103;49.492;8.474;2023-02-28T04:26:50;101455.41;;;1.10;57.96
6144;BME280;3103;49.492;8.474;2023-02-28T04:29:28;101452.75;;;1.10;58.46
6144;BME280;3103;49.492;8.474;2023-02-28T04:31:56;101464.34;;;1.09;58.59
6144;BME280;3103;49.492;8.474;2023-02-28T04:34:28;101456.25;;;1.11;58.18
6144;BME280;3103;49.492;8.474;2023-02-28T04:36:56;101450.94;;;1.11;58.40
6144;BME280;3103;49.492;8.474;2023-02-28T04:39:38;101456.56;;;1.08;58.13
6144;BME280;3103;49.492;8.474;2023-02-28T04:42:06;101449.97;;;1.12;58.18
6144;BME280;3103;49.492;8.474;2023-02-28T04:44:32;101455.66;;;1.17;57.90
6144;BME280;3103;49.492;8.474;2023-02-28T04:46:59;101451.66;;;1.13;58.32
6144;BME280;3103;49.492;8.474;2023-02-28T04:49:26;101453.06;;;1.07;58.13
6144;BME280;3103;49.492;8.474;2023-02-28T04:51:53;101448.84;;;1.14;58.06
6144;BME280;3103;49.492;8.474;2023-02-28T04:54:20;101454.38;;;1.03;58.52
6144;BME280;3103;49.492;8.474;2023-02-28T04:56:47;101453.06;;;1.07;58.52
6144;BME280;3103;49.492;8.474;2023-02-28T04:59:16;101448.69;;;0.98;58.53
6144;BME280;3103;49.492;8.474;2023-02-28T05:01:46;101458.69;;;1.04;58.11
6144;BME280;3103;49.492;8.474;2023-02-28T05:04:13;101459.72;;;1.11;58.01
6144;BME280;3103;49.492;8.474;2023-02-28T05:06:40;101457.41;;;0.91;59.36
6144;BME280;3103;49.492;8.474;2023-02-28T05:09:06;101463.34;;;1.10;58.41
6144;BME280;3103;49.492;8.474;2023-02-28T05:11:34;101462.75;;;1.16;57.79
6144;BME280;3103;49.492;8.474;2023-02-28T05:14:09;101469.72;;;1.17;57.90
6144;BME280;3103;49.492;8.474;2023-02-28T05:16:36;101462.53;;;1.28;57.55
6144;BME280;3103;49.492;8.474;2023-02-28T05:19:03;101468.38;;;1.13;57.88
6144;BME280;3103;49.492;8.474;2023-02-28T05:21:39;101463.91;;;1.14;58.10
6144;BME280;3103;49.492;8.474;2023-02-28T05:24:09;101467.34;;;1.32;57.62
6144;BME280;3103;49.492;8.474;2023-02-28T05:26:39;101468.78;;;1.27;57.83
6144;BME280;3103;49.492;8.474;2023-02-28T05:29:06;101469.53;;;1.37;57.35
6144;BME280;3103;49.492;8.474;2023-02-28T05:31:33;101474.53;;;1.22;57.75
6144;BME280;3103;49.492;8.474;2023-02-28T05:34:00;101472.84;;;1.39;57.22
6144;BME280;3103;49.492;8.474;2023-02-28T05:36:27;101470.34;;;1.37;56.89
6144;BME280;3103;49.492;8.474;2023-02-28T05:38:53;101460.41;;;1.31;57.35
6144;BME280;3103;49.492;8.474;2023-02-28T05:41:20;101470.59;;;1.44;57.25
6144;BME280;3103;49.492;8.474;2023-02-28T05:43:48;101473.13;;;1.28;57.88
6144;BME280;3103;49.492;8.474;2023-02-28T05:46:15;101474.94;;;1.27;57.56
6144;BME280;3103;49.492;8.474;2023-02-28T05:48:42;101471.69;;;1.15;57.77
6144;BME280;3103;49.492;8.474;2023-02-28T05:51:09;101479.91;;;1.30;57.21
6144;BME280;3103;49.492;8.474;2023-02-28T05:53:36;101474.38;;;1.41;57.54
6144;BME280;3103;49.492;8.474;2023-02-28T05:56:03;101479.34;;;1.44;57.06
6144;BME280;3103;49.492;8.474;2023-02-28T05:58:30;101475.06;;;1.43;57.53
6144;BME280;3103;49.492;8.474;2023-02-28T06:00:58;101476.56;;;1.46;57.06
6144;BME280;3103;49.492;8.474;2023-02-28T06:03:25;101479.13;;;1.38;57.20
6144;BME280;3103;49.492;8.474;2023-02-28T06:05:53;101475.56;;;1.47;57.32
6144;BME280;3103;49.492;8.474;2023-02-28T06:08:19;101481.78;;;1.38;56.62
6144;BME280;3103;49.492;8.474;2023-02-28T06:10:46;101480.13;;;1.37;57.57
6144;BME280;3103;49.492;8.474;2023-02-28T06:13:13;101487.75;;;1.40;57.16
6144;BME280;3103;49.492;8.474;2023-02-28T06:15:40;101491.34;;;1.31;57.40
6144;BME280;3103;49.492;8.474;2023-02-28T06:18:08;101481.34;;;1.25;57.50
6144;BME280;3103;49.492;8.474;2023-02-28T06:20:34;101486.34;;;1.28;57.30
6144;BME280;3103;49.492;8.474;2023-02-28T06:23:02;101488.22;;;1.35;57.09
6144;BME280;3103;49.492;8.474;2023-02-28T06:25:29;101489.34;;;1.33;57.21
6144;BME280;3103;49.492;8.474;2023-02-28T06:27:56;101488.88;;;1.37;57.35
6144;BME280;3103;49.492;8.474;2023-02-28T06:30:23;101492.47;;;1.28;57.53
6144;BME280;3103;49.492;8.474;2023-02-28T06:32:54;101497.47;;;1.31;58.05
6144;BME280;3103;49.492;8.474;2023-02-28T06:35:21;101496.41;;;1.24;57.46
6144;BME280;3103;49.492;8.474;2023-02-28T06:37:47;101497.06;;;1.26;57.71
6144;BME280;3103;49.492;8.474;2023-02-28T06:40:14;101501.00;;;1.22;57.67
6144;BME280;3103;49.492;8.474;2023-02-28T06:42:41;101493.03;;;1.14;57.93
6144;BME280;3103;49.492;8.474;2023-02-28T06:45:09;101502.31;;;1.18;57.93
6144;BME280;3103;49.492;8.474;2023-02-28T06:47:38;101496.41;;;1.24;57.61
6144;BME280;3103;49.492;8.474;2023-02-28T06:50:08;101510.94;;;1.20;58.08
6144;BME280;3103;49.492;8.474;2023-02-28T06:52:35;101501.31;;;1.19;58.10
6144;BME280;3103;49.492;8.474;2023-02-28T06:55:07;101508.44;;;1.18;58.22
6144;BME280;3103;49.492;8.474;2023-02-28T06:57:35;101505.75;;;1.36;57.90
6144;BME280;3103;49.492;8.474;2023-02-28T07:00:07;101511.28;;;1.43;57.54
6144;BME280;3103;49.492;8.474;2023-02-28T07:02:36;101511.34;;;1.51;57.00
6144;BME280;3103;49.492;8.474;2023-02-28T07:05:04;101511.41;;;1.59;56.83
6144;BME280;3103;49.492;8.474;2023-02-28T07:07:31;101517.28;;;1.71;56.44
6144;BME280;3103;49.492;8.474;2023-02-28T07:09:58;101524.13;;;1.82;56.32
6144;BME280;3103;49.492;8.474;2023-02-28T07:12:25;101520.88;;;1.88;55.67
6144;BME280;3103;49.492;8.474;2023-02-28T07:14:52;101527.00;;;1.88;55.59
6144;BME280;3103;49.492;8.474;2023-02-28T07:17:18;101528.44;;;1.83;55.95
6144;BME280;3103;49.492;8.474;2023-02-28T07:19:45;101527.09;;;1.78;55.74
6144;BME280;3103;49.492;8.474;2023-02-28T07:22:11;101531.56;;;1.78;55.83
6144;BME280;3103;49.492;8.474;2023-02-28T07:24:41;101539.03;;;1.83;55.54
6144;BME280;3103;49.492;8.474;2023-02-28T07:27:08;101541.03;;;1.81;55.89
6144;BME280;3103;49.492;8.474;2023-02-28T07:29:34;101533.47;;;1.86;56.47
6144;BME280;3103;49.492;8.474;2023-02-28T07:32:01;101538.91;;;1.84;56.06
6144;BME280;3103;49.492;8.474;2023-02-28T07:34:28;101532.31;;;1.88;55.50
6144;BME280;3103;49.492;8.474;2023-02-28T07:36:54;101538.34;;;1.98;55.45
6144;BME280;3103;49.492;8.474;2023-02-28T07:39:21;101535.97;;;2.21;54.68
6144;BME280;3103;49.492;8.474;2023-02-28T07:41:48;101534.44;;;2.45;54.45
6144;BME280;3103;49.492;8.474;2023-02-28T07:44:15;101535.34;;;2.70;53.58
6144;BME280;3103;49.492;8.474;2023-02-28T07:46:41;101539.72;;;2.87;53.10
6144;BME280;3103;49.492;8.474;2023-02-28T07:49:09;101541.25;;;2.97;52.38
6144;BME280;3103;49.492;8.474;2023-02-28T07:51:35;101538.75;;;2.96;52.39
6144;BME280;3103;49.492;8.474;2023-02-28T07:54:02;101543.91;;;3.06;51.85
6144;BME280;3103;49.492;8.474;2023-02-28T07:56:29;101550.38;;;3.03;51.97
6144;BME280;3103;49.492;8.474;2023-02-28T07:58:56;101545.69;;;2.89;51.36
6144;BME280;3103;49.492;8.474;2023-02-28T08:01:23;101554.31;;;2.91;52.04
6144;BME280;3103;49.492;8.474;2023-02-28T08:03:50;101554.31;;;2.83;52.17
6144;BME280;3103;49.492;8.474;2023-02-28T08:06:23;101552.13;;;2.78;52.23
6144;BME280;3103;49.492;8.474;2023-02-28T08:08:50;101551.50;;;2.92;52.47
6144;BME280;3103;49.492;8.474;2023-02-28T08:11:17;101548.72;;;3.10;52.20
6144;BME280;3103;49.492;8.474;2023-02-28T08:13:45;101553.88;;;3.20;51.73
6144;BME280;3103;49.492;8.474;2023-02-28T08:16:12;101553.22;;;3.18;51.28
6144;BME280;3103;49.492;8.474;2023-02-28T08:18:44;101549.56;;;3.19;51.13
6144;BME280;3103;49.492;8.474;2023-02-28T08:21:11;101549.41;;;3.37;50.82
6144;BME280;3103;49.492;8.474;2023-02-28T08:23:38;101545.78;;;3.54;50.38
6144;BME280;3103;49.492;8.474;2023-02-28T08:26:05;101560.88;;;3.62;49.83
6144;BME280;3103;49.492;8.474;2023-02-28T08:28:32;101540.56;;;4.09;48.56
6144;BME280;3103;49.492;8.474;2023-02-28T08:30:59;101541.41;;;4.02;48.44
6144;BME280;3103;49.492;8.474;2023-02-28T08:33:27;101549.53;;;4.08;48.12
6144;BME280;3103;49.492;8.474;2023-02-28T08:35:56;101540.00;;;4.30;47.38
6144;BME280;3103;49.492;8.474;2023-02-28T08:38:23;101533.28;;;3.95;47.87
6144;BME280;3103;49.492;8.474;2023-02-28T08:40:57;101546.06;;;3.92;48.84
6144;BME280;3103;49.492;8.474;2023-02-28T08:43:24;101541.69;;;4.07;49.09
6144;BME280;3103;49.492;8.474;2023-02-28T08:45:52;101538.16;;;4.31;48.16
6144;BME280;3103;49.492;8.474;2023-02-28T08:48:19;101538.00;;;4.63;47.50
6144;BME280;3103;49.492;8.474;2023-02-28T08:51:00;101550.81;;;4.68;47.05
6144;BME280;3103;49.492;8.474;2023-02-28T08:53:34;101546.06;;;4.47;47.14
6144;BME280;3103;49.492;8.474;2023-02-28T08:56:08;101544.03;;;4.57;47.59
6144;BME280;3103;49.492;8.474;2023-02-28T08:58:36;101541.44;;;4.80;47.03
6144;BME280;3103;49.492;8.474;2023-02-28T09:01:11;101540.56;;;4.88;45.84
6144;BME280;3103;49.492;8.474;2023-02-28T09:03:39;101544.13;;;5.03;45.46
6144;BME280;3103;49.492;8.474;2023-02-28T09:06:09;101545.94;;;5.11;45.70
6144;BME280;3103;49.492;8.474;2023-02-28T09:08:36;101540.81;;;5.01;46.04
6144;BME280;3103;49.492;8.474;2023-02-28T09:11:03;101537.88;;;4.65;45.49
6144;BME280;3103;49.492;8.474;2023-02-28T09:13:31;101543.59;;;4.76;45.93
6144;BME280;3103;49.492;8.474;2023-02-28T09:16:00;101545.78;;;5.04;48.49
6144;BME280;3103;49.492;8.474;2023-02-28T09:18:27;101545.38;;;5.61;49.62
6144;BME280;3103;49.492;8.474;2023-02-28T09:20:54;101546.59;;;5.96;46.60
6144;BME280;3103;49.492;8.474;2023-02-28T09:23:21;101543.34;;;7.53;45.26
6144;BME280;3103;49.492;8.474;2023-02-28T09:25:53;101552.69;;;9.02;39.51
6144;BME280;3103;49.492;8.474;2023-02-28T09:28:21;101550.44;;;9.06;37.21
6144;BME280;3103;49.492;8.474;2023-02-28T09:30:50;101553.94;;;8.58;37.62
6144;BME280;3103;49.492;8.474;2023-02-28T09:33:18;101548.88;;;9.64;36.65
6144;BME280;3103;49.492;8.474;2023-02-28T09:35:50;101548.63;;;11.21;32.77
6144;BME280;3103;49.492;8.474;2023-02-28T09:38:17;101548.81;;;10.10;33.97
6144;BME280;3103;49.492;8.474;2023-02-28T09:40:53;101543.47;;;9.84;34.98
6144;BME280;3103;49.492;8.474;2023-02-28T09:43:22;101542.06;;;9.48;35.65
6144;BME280;3103;49.492;8.474;2023-02-28T09:45:55;101529.22;;;8.22;35.94
6144;BME280;3103;49.492;8.474;2023-02-28T09:48:32;101532.91;;;7.86;38.04
6144;BME280;3103;49.492;8.474;2023-02-28T09:51:15;101537.59;;;7.56;40.23
6144;BME280;3103;49.492;8.474;2023-02-28T09:53:48;101537.03;;;7.39;39.95
6144;BME280;3103;49.492;8.474;2023-02-28T09:56:29;101532.97;;;7.22;39.73
6144;BME280;3103;49.492;8.474;2023-02-28T10:02:16;101538.47;;;6.99;38.96
6144;BME280;3103;49.492;8.474;2023-02-28T10:04:54;101530.16;;;7.09;39.66
6144;BME280;3103;49.492;8.474;2023-02-28T10:10:41;101540.16;;;7.22;40.27
6144;BME280;3103;49.492;8.474;2023-02-28T10:16:14;101536.97;;;6.75;37.40
6144;BME280;3103;49.492;8.474;2023-02-28T10:18:54;101532.13;;;6.64;37.55
6144;BME280;3103;49.492;8.474;2023-02-28T10:21:30;101537.31;;;6.51;37.67
6144;BME280;3103;49.492;8.474;2023-02-28T10:24:03;101535.34;;;6.45;39.99
6144;BME280;3103;49.492;8.474;2023-02-28T10:26:32;101536.97;;;6.90;41.31
6144;BME280;3103;49.492;8.474;2023-02-28T10:28:59;101541.97;;;7.00;39.82
6144;BME280;3103;49.492;8.474;2023-02-28T10:31:26;101535.00;;;7.41;40.13
6144;BME280;3103;49.492;8.474;2023-02-28T10:33:53;101537.69;;;7.20;40.09
6144;BME280;3103;49.492;8.474;2023-02-28T10:36:21;101540.56;;;7.19;39.44
6144;BME280;3103;49.492;8.474;2023-02-28T10:38:58;101535.47;;;7.24;38.44
6144;BME280;3103;49.492;8.474;2023-02-28T10:41:27;101532.13;;;7.00;37.93
6144;BME280;3103;49.492;8.474;2023-02-28T10:44:13;101532.75;;;7.02;40.69
6144;BME280;3103;49.492;8.474;2023-02-28T10:46:41;101535.31;;;7.10;38.98
6144;BME280;3103;49.492;8.474;2023-02-28T10:49:22;101527.94;;;7.34;39.38
6144;BME280;3103;49.492;8.474;2023-02-28T10:51:52;101526.66;;;7.51;38.65
6144;BME280;3103;49.492;8.474;2023-02-28T10:54:33;101528.97;;;7.33;38.55
6144;BME280;3103;49.492;8.474;2023-02-28T10:57:19;101531.63;;;6.90;38.02
6144;BME280;3103;49.492;8.474;2023-02-28T10:59:51;101523.13;;;6.50;38.49
6144;BME280;3103;49.492;8.474;2023-02-28T11:02:47;101524.41;;;6.40;38.03
6144;BME280;3103;49.492;8.474;2023-02-28T11:05:29;101525.13;;;6.63;38.26
6144;BME280;3103;49.492;8.474;2023-02-28T11:10:32;101523.03;;;6.95;36.54
6144;BME280;3103;49.492;8.474;2023-02-28T11:13:02;101530.22;;;7.15;37.37
6144;BME280;3103;49.492;8.474;2023-02-28T11:15:32;101519.75;;;6.78;37.85
6144;BME280;3103;49.492;8.474;2023-02-28T11:18:19;101522.63;;;6.76;38.60
6144;BME280;3103;49.492;8.474;2023-02-28T11:20:50;101516.81;;;6.73;37.87
6144;BME280;3103;49.492;8.474;2023-02-28T11:23:18;101518.88;;;6.41;37.96
6144;BME280;3103;49.492;8.474;2023-02-28T11:25:58;101520.06;;;6.53;38.28
6144;BME280;3103;49.492;8.474;2023-02-28T11:34:20;101512.94;;;6.75;37.47
6144;BME280;3103;49.492;8.474;2023-02-28T11:36:28;101517.44;;;6.75;38.12
6144;BME280;3103;49.492;8.474;2023-02-28T11:38:59;101509.41;;;7.11;37.50
6144;BME280;3103;49.492;8.474;2023-02-28T11:48:12;101498.16;;;6.58;38.49
6144;BME280;3103;49.492;8.474;2023-02-28T11:50:47;101498.47;;;6.48;38.14
6144;BME280;3103;49.492;8.474;2023-02-28T11:55:49;101500.84;;;6.29;38.19
6144;BME280;3103;49.492;8.474;2023-02-28T12:04:15;101489.38;;;6.13;38.33
6144;BME280;3103;49.492;8.474;2023-02-28T12:06:56;101493.09;;;5.89;38.33
6144;BME280;3103;49.492;8.474;2023-02-28T12:09:47;101495.50;;;5.84;38.78
6144;BME280;3103;49.492;8.474;2023-02-28T12:12:43;101498.47;;;6.19;40.14
6144;BME280;3103;49.492;8.474;2023-02-28T12:15:24;101496.16;;;6.31;39.60
6144;BME280;3103;49.492;8.474;2023-02-28T12:21:08;101495.91;;;6.25;38.60
6144;BME280;3103;49.492;8.474;2023-02-28T12:23:50;101496.53;;;6.42;38.85
6144;BME280;3103;49.492;8.474;2023-02-28T12:26:40;101487.03;;;6.40;38.22
6144;BME280;3103;49.492;8.474;2023-02-28T12:29:40;101490.47;;;6.19;37.99
6144;BME280;3103;49.492;8.474;2023-02-28T12:32:25;101490.63;;;6.32;38.50
6144;BME280;3103;49.492;8.474;2023-02-28T12:37:37;101476.66;;;6.30;38.28
6144;BME280;3103;49.492;8.474;2023-02-28T12:40:28;101486.84;;;6.41;38.10
6144;BME280;3103;49.492;8.474;2023-02-28T12:42:59;101488.56;;;6.64;36.87
6144;BME280;3103;49.492;8.474;2023-02-28T12:48:14;101484.00;;;6.28;36.73
6144;BME280;3103;49.492;8.474;2023-02-28T12:50:41;101474.94;;;6.22;37.24
6144;BME280;3103;49.492;8.474;2023-02-28T12:53:18;101468.03;;;6.13;38.29
6144;BME280;3103;49.492;8.474;2023-02-28T12:58:42;101482.06;;;5.78;39.23
6144;BME280;3103;49.492;8.474;2023-02-28T13:04:36;101475.13;;;6.21;38.78
6144;BME280;3103;49.492;8.474;2023-02-28T13:10:04;101472.06;;;6.24;39.45
6144;BME280;3103;49.492;8.474;2023-02-28T13:12:35;101464.44;;;6.21;40.07
6144;BME280;3103;49.492;8.474;2023-02-28T13:17:32;101464.53;;;6.13;40.01
6144;BME280;3103;49.492;8.474;2023-02-28T13:19:59;101465.81;;;6.17;39.88
6144;BME280;3103;49.492;8.474;2023-02-28T13:27:52;101468.81;;;6.43;38.78
6144;BME280;3103;49.492;8.474;2023-02-28T13:33:31;101460.94;;;6.57;38.59
6144;BME280;3103;49.492;8.474;2023-02-28T13:44:20;101467.56;;;6.61;38.34
6144;BME280;3103;49.492;8.474;2023-02-28T13:49:20;101477.94;;;6.34;37.81
6144;BME280;3103;49.492;8.474;2023-02-28T13:54:53;101478.47;;;6.44;37.37
6144;BME280;3103;49.492;8.474;2023-02-28T13:57:37;101471.28;;;6.45;37.85
6144;BME280;3103;49.492;8.474;2023-02-28T14:05:43;101469.09;;;6.48;38.13
6144;BME280;3103;49.492;8.474;2023-02-28T14:08:22;101467.22;;;6.64;38.20
6144;BME280;3103;49.492;8.474;2023-02-28T14:10:52;101466.94;;;6.59;37.65
6144;BME280;3103;49.492;8.474;2023-02-28T14:13:39;101458.75;;;6.45;37.33
6144;BME280;3103;49.492;8.474;2023-02-28T14:16:16;101467.06;;;6.50;37.94
6144;BME280;3103;49.492;8.474;2023-02-28T14:18:56;101463.25;;;6.60;37.60
6144;BME280;3103;49.492;8.474;2023-02-28T14:21:29;101463.25;;;6.60;37.51
6144;BME280;3103;49.492;8.474;2023-02-28T14:27:05;101475.00;;;6.80;37.33
6144;BME280;3103;49.492;8.474;2023-02-28T14:32:58;101478.94;;;7.05;36.89
6144;BME280;3103;49.492;8.474;2023-02-28T14:37:53;101471.69;;;6.99;37.07
6144;BME280;3103;49.492;8.474;2023-02-28T14:40:31;101469.84;;;7.00;37.00
6144;BME280;3103;49.492;8.474;2023-02-28T14:43:02;101469.72;;;7.08;37.24
6144;BME280;3103;49.492;8.474;2023-02-28T14:45:31;101468.47;;;7.04;37.46
6144;BME280;3103;49.492;8.474;2023-02-28T14:47:59;101468.75;;;7.37;37.08
6144;BME280;3103;49.492;8.474;2023-02-28T14:50:31;101465.88;;;7.38;36.27
6144;BME280;3103;49.492;8.474;2023-02-28T14:52:58;101458.47;;;7.40;37.42
6144;BME280;3103;49.492;8.474;2023-02-28T14:55:31;101466.97;;;7.23;37.55
6144;BME280;3103;49.492;8.474;2023-02-28T14:58:01;101468.31;;;7.33;37.54
6144;BME280;3103;49.492;8.474;2023-02-28T15:00:35;101479.69;;;7.42;37.27
6144;BME280;3103;49.492;8.474;2023-02-28T15:03:33;101466.81;;;7.52;37.09
6144;BME280;3103;49.492;8.474;2023-02-28T15:06:03;101456.50;;;7.49;37.39
6144;BME280;3103;49.492;8.474;2023-02-28T15:08:30;101463.09;;;7.53;37.40
6144;BME280;3103;49.492;8.474;2023-02-28T15:11:04;101463.44;;;7.43;38.04
6144;BME280;3103;49.492;8.474;2023-02-28T15:13:45;101466.94;;;7.44;36.79
6144;BME280;3103;49.492;8.474;2023-02-28T15:16:29;101456.41;;;7.36;37.74
6144;BME280;3103;49.492;8.474;2023-02-28T15:19:01;101465.53;;;7.20;37.54
6144;BME280;3103;49.492;8.474;2023-02-28T15:21:34;101464.84;;;7.39;38.62
6144;BME280;3103;49.492;8.474;2023-02-28T15:26:40;101469.25;;;7.26;39.46
6144;BME280;3103;49.492;8.474;2023-02-28T15:29:12;101469.63;;;7.01;37.72
6144;BME280;3103;49.492;8.474;2023-02-28T15:31:45;101470.19;;;6.75;38.42
6144;BME280;3103;49.492;8.474;2023-02-28T15:34:41;101474.59;;;6.47;39.16